Latest Weather Observations for Camooweal

IDQ60801

Issued at 10:52 am EST Tuesday 19 June 2018 (issued every 10 minutes, with the page automatically refreshed every 10 minutes)

About weather observations | Map of weather stations | Latest weather observations for QLD | Other Formats
Station Details ID: 037010 Name: CAMOOWEAL TOWNSHIP Lat: -19.92 Lon: 138.12 Height: 231.2 m
Data from the previous 72 hours. | See also: Recent months at Camooweal
Date/Time
EST
Temp
°C
App
Temp
°C
Dew
Point
°C
Rel
Hum
%
Delta-T
°C
Wind Press
QNH
hPa
Press
MSL
hPa
Rain since
9am
mm
Dir  Spd
km/h
Gust
km/h
Spd
kts
Gust
kts
19/10:30am 15.7 11.0 -1.8 30 7.2 ENE 13 19 7 10 1022.9 1022.4 0.0
19/10:00am 13.6 8.8 -2.3 33 6.3 ESE 13 19 7 10 1023.3 1022.8 0.0
19/09:30am 11.6 7.3 -1.5 40 5.2 SE 11 15 6 8 1023.4 1022.9 0.0
19/09:00am 10.0 5.7 -1.7 44 4.6 SSE 11 17 6 9 1023.3 1022.8 0.0
19/08:30am 5.6 1.6 -2.0 58 2.8 SSW 9 11 5 6 1023.1 1022.6 0.0
19/08:00am 2.9 -1.2 -3.4 63 2.2 SSW 9 11 5 6 1023.0 1022.5 0.0
19/07:30am 1.7 -2.9 -4.4 64 2.1 SSW 11 13 6 7 1022.4 1021.9 0.0
19/07:00am 2.7 -1.1 -3.8 62 2.2 SSW 7 9 4 5 1022.1 1021.6 0.0
19/06:30am 3.2 -1.0 -3.8 60 2.4 S 9 11 5 6 1021.9 1021.4 0.0
19/06:00am 3.7 -0.9 -4.0 57 2.6 S 11 13 6 7 1021.9 1021.4 0.0
19/05:30am 4.2 -0.7 -3.5 57 2.7 S 13 17 7 9 1021.9 1021.4 0.0
19/05:00am 4.1 -0.9 -4.1 55 2.8 S 13 15 7 8 1021.9 1021.4 0.0
19/04:30am 4.3 -0.7 -4.4 53 3.0 S 13 15 7 8 1021.8 1021.3 0.0
19/04:00am 3.6 -1.0 -3.9 58 2.6 SSW 11 13 6 7 1021.7 1021.2 0.0
19/03:30am 3.4 -0.9 -4.5 56 2.7 SSW 9 11 5 6 1021.6 1021.1 0.0
19/03:00am 4.9 1.1 -3.9 53 3.1 SW 7 9 4 5 1021.4 1020.9 0.0
19/02:30am 5.7 2.2 -2.6 55 3.0 WSW 6 7 3 4 1021.9 1021.4 0.0
19/02:00am 5.9 2.4 -3.2 52 3.3 S 6 7 3 4 1022.0 1021.5 0.0
19/01:30am 6.6 2.9 -3.3 49 3.6 SSW 7 9 4 5 1022.3 1021.8 0.0
19/01:00am 6.9 3.1 -3.6 47 3.8 SSW 7 9 4 5 1022.3 1021.8 0.0
19/12:30am 8.5 4.8 -3.0 44 4.3 SSW 7 9 4 5 1022.3 1021.8 0.0
19/12:00am 8.8 5.0 -3.4 42 4.5 S 7 9 4 5 1022.3 1021.8 0.0
 
Date/Time
EST
Temp
°C
App
Temp
°C
Dew
Point
°C
Rel
Hum
%
Delta-T
°C
Wind Press
QNH
hPa
Press
MSL
hPa
Rain since
9am
mm
Dir  Spd
km/h
Gust
km/h
Spd
kts
Gust
kts
18/11:30pm 9.3 4.8 -3.6 40 4.8 SSE 11 13 6 7 1022.4 1021.9 0.0
18/11:00pm 9.8 5.2 -3.8 38 5.0 SSE 11 13 6 7 1022.4 1021.9 0.0
18/10:30pm 10.8 6.2 -4.4 34 5.6 SSE 11 13 6 7 1022.4 1021.9 0.0
18/10:00pm 12.4 7.0 -4.2 31 6.3 SSE 15 20 8 11 1022.4 1021.9 0.0
18/09:30pm 13.4 7.6 -4.7 28 6.9 SSE 17 24 9 13 1022.4 1021.9 0.0
18/09:00pm 14.0 7.8 -5.2 26 7.2 S 19 26 10 14 1022.4 1021.9 0.0
18/08:30pm 14.9 8.4 -5.5 24 7.7 S 20 26 11 14 1022.1 1021.6 0.0
18/08:00pm 15.4 9.1 -6.2 22 8.1 S 19 24 10 13 1021.8 1021.3 0.0
18/07:30pm 16.5 10.1 -6.5 20 8.7 SSE 19 24 10 13 1021.6 1021.1 0.0
18/07:00pm 17.2 10.8 -6.6 19 9.0 S 19 26 10 14 1021.3 1020.8 0.0
18/06:30pm 18.0 12.0 -6.6 18 9.4 S 17 22 9 12 1020.9 1020.4 0.0
18/06:00pm 19.4 12.8 -7.0 16 10.2 SSE 20 26 11 14 1020.6 1020.1 0.0
18/05:30pm 20.7 13.7 -7.7 14 11.0 SSE 22 32 12 17 1020.3 1019.8 0.0
18/05:00pm 21.3 14.3 -7.2 14 11.1 SSE 22 30 12 16 1019.9 1019.4 0.0
18/04:30pm 21.7 14.7 -6.9 14 11.3 SSE 22 32 12 17 1019.8 1019.2 0.0
18/04:00pm 22.1 15.9 -4.9 16 11.1 SSE 19 33 10 18 1019.9 1019.4 0.0
18/03:30pm 21.7 14.8 -6.0 15 11.2 SSE 22 33 12 18 1020.0 1019.5 0.0
18/03:00pm 21.8 15.0 -5.1 16 11.0 SE 22 33 12 18 1020.1 1019.6 0.0
18/02:30pm 21.6 15.2 -5.3 16 11.0 SSE 20 32 11 17 1020.5 1020.0 0.0
18/02:00pm 20.3 13.2 -4.0 19 10.0 SSE 24 35 13 19 1020.8 1020.3 0.0
18/01:30pm 20.0 13.0 -3.6 20 9.8 SE 24 37 13 20 1021.4 1020.9 0.0
18/01:00pm 19.4 12.9 -2.8 22 9.3 SSE 22 32 12 17 1021.9 1021.4 0.0
18/12:30pm 19.2 12.3 -2.4 23 9.1 SE 24 35 13 19 1022.3 1021.8 0.0
18/12:00pm 17.9 11.1 -1.9 26 8.3 SE 24 37 13 20 1022.7 1022.2 0.0
18/11:30am 16.6 9.8 -1.5 29 7.6 SE 24 33 13 18 1023.2 1022.7 0.0
18/11:00am 16.1 8.7 -1.0 31 7.2 SE 28 37 15 20 1023.6 1023.2 0.0
18/10:30am 15.0 8.0 -0.7 34 6.6 SE 26 35 14 19 1024.1 1023.7 0.0
18/10:00am 14.4 7.5 -0.1 37 6.1 SE 26 39 14 21 1024.3 1023.8 0.0
18/09:30am 13.0 5.7 -0.3 40 5.5 SE 28 39 15 21 1024.1 1023.7 0.0
18/09:00am 10.7 5.1 1.0 51 4.0 SSE 20 26 11 14 1024.1 1023.7 0.0
18/08:30am 9.4 4.4 1.3 57 3.4 SSE 17 26 9 14 1024.3 1023.8 0.0
18/08:00am 7.4 3.1 1.0 64 2.6 S 13 20 7 11 1023.9 1023.5 0.0
18/07:30am 6.9 2.6 0.8 65 2.5 S 13 17 7 9 1023.7 1023.3 0.0
18/07:00am 6.4 2.1 0.9 68 2.2 S 13 15 7 8 1023.8 1023.4 0.0
18/06:30am 5.9 1.9 0.5 68 2.1 S 11 15 6 8 1023.4 1022.9 0.0
18/06:00am 6.4 2.4 0.5 66 2.3 S 11 13 6 7 1023.1 1022.6 0.0
18/05:30am 7.3 3.3 0.7 63 2.7 S 11 15 6 8 1023.0 1022.5 0.0
18/05:00am 6.0 1.7 0.8 69 2.1 S 13 15 7 8 1022.8 1022.3 0.0
18/04:30am 5.2 1.5 0.2 70 1.9 S 9 11 5 6 1022.8 1022.3 0.0
18/04:00am 5.3 1.6 0.1 69 2.0 SSW 9 11 5 6 1022.9 1022.4 0.0
18/03:30am 4.9 1.1 -0.5 68 2.1 SSW 9 11 5 6 1023.0 1022.5 0.0
18/03:00am 5.3 0.7 -0.7 65 2.3 SSW 13 13 7 7 1023.2 1022.7 0.0
18/02:30am 6.5 2.0 -0.5 61 2.7 SSW 13 13 7 7 1023.4 1022.9 0.0
18/02:00am 7.5 3.1 0.3 60 2.9 S 13 15 7 8 1023.4 1022.9 0.0
18/01:30am 8.4 4.4 0.4 57 3.2 S 11 13 6 7 1023.5 1023.0 0.0
18/01:00am 8.5 4.5 0.2 56 3.3 S 11 13 6 7 1023.5 1023.0 0.0
18/12:30am 8.7 4.3 0.2 55 3.4 S 13 15 7 8 1023.5 1023.0 0.0
18/12:00am 9.7 5.7 0.3 52 3.8 S 11 13 6 7 1023.6 1023.2 0.0
 
Date/Time
EST
Temp
°C
App
Temp
°C
Dew
Point
°C
Rel
Hum
%
Delta-T
°C
Wind Press
QNH
hPa
Press
MSL
hPa
Rain since
9am
mm
Dir  Spd
km/h
Gust
km/h
Spd
kts
Gust
kts
17/11:30pm 10.4 6.4 0.4 50 4.1 SSE 11 13 6 7 1023.6 1023.2 0.0
17/11:00pm 11.3 7.3 0.7 48 4.4 S 11 17 6 9 1023.7 1023.3 0.0
17/10:30pm 12.6 8.3 1.0 45 5.0 S 13 17 7 9 1023.6 1023.2 0.0
17/10:00pm 12.4 8.6 1.7 48 4.6 S 11 17 6 9 1023.4 1022.9 0.0
17/09:30pm 12.7 8.8 1.4 46 4.9 S 11 15 6 8 1023.2 1022.7 0.0
17/09:00pm 14.3 10.0 1.2 41 5.7 S 13 15 7 8 1023.0 1022.5 0.0
17/08:30pm 15.9 10.9 1.2 37 6.5 S 17 20 9 11 1022.7 1022.2 0.0
17/08:00pm 17.0 11.4 1.4 35 7.0 SSE 20 32 11 17 1022.5 1022.0 0.0
17/07:30pm 17.4 11.8 1.4 34 7.2 SSE 20 30 11 16 1022.1 1021.6 0.0
17/07:00pm 17.9 12.0 1.4 33 7.4 S 22 30 12 16 1021.9 1021.4 0.0
17/06:30pm 18.7 13.2 1.7 32 7.8 SSE 20 30 11 16 1021.5 1021.0 0.0
17/06:00pm 19.8 12.7 1.3 29 8.4 S 28 37 15 20 1021.1 1020.6 0.0
17/05:30pm 20.8 14.0 1.1 27 9.1 SSE 26 37 14 20 1020.9 1020.4 0.0
17/05:00pm 21.6 14.4 0.8 25 9.5 SSE 28 39 15 21 1020.7 1020.2 0.0
17/04:30pm 21.9 14.7 1.0 25 9.7 SSE 28 41 15 22 1020.7 1020.2 0.0
17/04:00pm 22.1 15.4 1.2 25 9.7 SSE 26 37 14 20 1020.7 1020.2 0.0
17/03:30pm 22.5 15.4 1.5 25 9.9 SE 28 39 15 21 1020.9 1020.4 0.0
17/03:00pm 21.7 15.0 1.4 26 9.4 SSE 26 37 14 20 1021.1 1020.6 0.0
17/02:30pm 22.0 15.7 1.6 26 9.6 SE 24 37 13 20 1021.3 1020.8 0.0
17/02:00pm 21.7 15.2 2.4 28 9.1 SSE 26 35 14 19 1021.8 1021.3 0.0
17/01:30pm 21.4 15.4 3.1 30 8.8 SSE 24 37 13 20 1022.3 1021.8 0.0
17/01:00pm 20.5 14.1 3.3 32 8.2 SSE 26 39 14 21 1023.0 1022.5 0.0
17/12:30pm 21.1 15.2 3.8 32 8.4 SSE 24 35 13 19 1023.5 1023.0 0.0
17/12:00pm 19.7 13.0 3.4 34 7.7 SE 28 41 15 22 1024.4 1023.9 0.0
17/11:30am 18.8 11.2 3.8 37 7.2 SSE 33 44 18 24 1024.8 1024.3 0.0
17/11:08am 18.4 11.3 3.8 38 7.0 SE 30 48 16 26 1025.0 1024.5 0.0
17/11:00am 18.0 10.7 4.6 41 6.4 SE 32 46 17 25 1025.2 1024.7 0.0
17/10:30am 17.5 10.3 5.1 44 6.0 SSE 32 43 17 23 1025.6 1025.1 0.0
17/10:00am 16.2 9.4 4.9 47 5.4 SE 30 41 16 22 1025.6 1025.1 0.0
17/09:30am 15.2 8.7 4.9 50 4.9 SSE 28 39 15 21 1025.6 1025.1 0.0
17/09:00am 13.8 8.5 4.9 55 4.2 SSE 22 35 12 19 1025.2 1024.7 0.0
17/08:30am 11.4 7.5 5.3 66 2.8 S 15 20 8 11 1025.2 1024.7 0.0
17/08:00am 7.3 4.6 3.7 78 1.5 SSW 7 9 4 5 1025.0 1024.5 0.0
17/07:30am 6.5 2.9 2.9 78 1.5 SSW 11 13 6 7 1024.5 1024.0 0.0
17/07:00am 8.6 5.0 3.2 69 2.3 S 11 13 6 7 1024.3 1023.8 0.0
17/06:30am 10.0 6.3 4.2 67 2.6 S 13 19 7 10 1023.7 1023.3 0.0
17/06:00am 9.9 5.8 4.1 67 2.6 S 15 19 8 10 1023.4 1022.9 0.0
17/05:30am 9.5 5.7 3.7 67 2.6 S 13 15 7 8 1023.6 1023.2 0.0
17/05:00am 9.7 5.9 3.7 66 2.6 S 13 15 7 8 1023.3 1022.8 0.0
17/04:30am 10.0 6.1 3.5 64 2.9 S 13 17 7 9 1023.2 1022.7 0.0
17/04:00am 9.5 5.5 2.6 62 3.0 S 13 15 7 8 1023.2 1022.7 0.0
17/03:30am 10.4 6.2 1.8 55 3.7 S 13 22 7 12 1023.1 1022.6 0.0
17/03:00am 12.7 8.0 3.4 53 4.2 SSE 17 22 9 12 1023.1 1022.6 0.0
17/02:30am 12.0 8.0 2.7 53 4.1 SSE 13 17 7 9 1023.6 1023.2 0.0
17/02:00am 12.0 7.8 1.9 50 4.4 SSE 13 15 7 8 1023.9 1023.5 0.0
17/01:30am 12.6 8.0 1.6 47 4.8 SSE 15 20 8 11 1023.9 1023.5 0.0
17/01:00am 11.7 7.4 1.1 48 4.5 SSE 13 15 7 8 1023.8 1023.4 0.0
17/12:30am 12.1 8.1 0.8 46 4.8 SSE 11 15 6 8 1023.9 1023.5 0.0
17/12:00am 12.8 8.5 1.2 45 5.0 SSE 13 17 7 9 1023.8 1023.4 0.0
 
Date/Time
EST
Temp
°C
App
Temp
°C
Dew
Point
°C
Rel
Hum
%
Delta-T
°C
Wind Press
QNH
hPa
Press
MSL
hPa
Rain since
9am
mm
Dir  Spd
km/h
Gust
km/h
Spd
kts
Gust
kts
16/11:30pm 12.4 8.4 0.8 45 4.9 SSE 11 15 6 8 1023.9 1023.5 0.0
16/11:00pm 12.9 8.9 0.3 42 5.3 SSE 11 15 6 8 1023.8 1023.4 0.0
16/10:30pm 14.0 9.6 0.6 40 5.8 SSE 13 19 7 10 1023.6 1023.2 0.0
16/10:00pm 13.4 9.0 0.4 41 5.5 S 13 15 7 8 1023.6 1023.2 0.0
16/09:30pm 13.9 9.4 -0.2 38 5.9 S 13 19 7 10 1023.5 1023.0 0.0
16/09:00pm 15.7 11.2 -0.1 34 6.8 SSE 13 17 7 9 1023.4 1022.9 0.0
16/08:30pm 16.4 11.9 -0.3 32 7.2 SSE 13 20 7 11 1023.3 1022.8 0.0
16/08:00pm 17.4 12.5 -0.3 30 7.7 SSE 15 19 8 10 1022.8 1022.3 0.0
16/07:30pm 18.1 12.9 -0.2 29 8.0 SSE 17 20 9 11 1022.5 1022.0 0.0
16/07:00pm 18.3 13.5 0.0 29 8.0 SSE 15 20 8 11 1022.5 1022.0 0.0
16/06:30pm 19.7 13.9 -0.3 26 8.9 SSE 20 28 11 15 1022.1 1021.6 0.0
16/06:00pm 20.7 14.5 -0.6 24 9.4 SSE 22 30 12 16 1021.9 1021.4 0.0
16/05:30pm 21.5 14.9 -0.5 23 9.9 SSE 24 35 13 19 1021.9 1021.4 0.0
16/05:00pm 22.3 15.0 0.2 23 10.1 SSE 28 37 15 20 1021.9 1021.4 0.0
16/04:30pm 22.3 15.4 0.2 23 10.1 SSE 26 35 14 19 1021.9 1021.4 0.0
16/04:00pm 23.0 15.6 -0.5 21 10.6 SSE 28 37 15 20 1021.8 1021.3 0.0
16/03:51pm 23.2 15.9 -0.3 21 10.7 SSE 28 46 15 25 1021.7 1021.2 0.0
16/03:30pm 23.3 15.9 -0.9 20 10.9 SSE 28 37 15 20 1021.7 1021.2 0.0
16/03:00pm 23.2 15.9 0.3 22 10.5 SSE 28 39 15 21 1021.8 1021.3 0.0
16/02:30pm 23.7 16.0 0.1 21 10.9 SSE 30 44 16 24 1022.1 1021.6 0.0
16/02:00pm 23.2 16.5 1.5 24 10.2 S 26 39 14 21 1022.2 1021.7 0.0
16/01:30pm 23.2 16.5 1.5 24 10.2 SE 26 37 14 20 1022.8 1022.3 0.0
16/01:00pm 23.0 16.4 1.9 25 10.0 SSE 26 37 14 20 1023.4 1022.9 0.0
16/12:30pm 22.0 15.3 1.6 26 9.6 SE 26 37 14 20 1023.9 1023.5 0.0
16/12:00pm 21.1 14.4 1.4 27 9.1 SE 26 35 14 19 1024.5 1024.0 0.0
16/11:30am 21.4 14.7 1.7 27 9.2 SE 26 35 14 19 1024.9 1024.4 0.0
16/11:00am 20.2 13.2 2.1 30 8.4 SE 28 37 15 20 1025.3 1024.8 0.0

Other Formats:

Comma delimited format used in spreadsheet applications
http://www.bom.gov.au/fwo/IDQ60801/IDQ60801.94255.axf

JavaScript Object Notation format (JSON) in row-major order
http://www.bom.gov.au/fwo/IDQ60801/IDQ60801.94255.json